This is the latest recevied weather packets stored in our database for station/object K5OBH. If no packets are shown the sender has not sent any weather packets the latest 10 day(s).
| Time | Temp. | Humidity | Pressure | Rain* | Wind** | Luminosity | Snow |
|---|---|---|---|---|---|---|---|
| 1778137457 | 8.33° C | 84% | 1018.9 hPa | 0 mm | - | 0 W/m² | - |
| 1778137153 | 8.33° C | 83% | 1018.8 hPa | 0 mm | - | 0 W/m² | - |
| 1778136850 | 8.33° C | 82% | 1018.8 hPa | 0 mm | - | 0 W/m² | - |
| 1778136547 | 8.89° C | 81% | 1018.8 hPa | 0 mm | - | 0 W/m² | - |
| 1778136245 | 8.89° C | 79% | 1019 hPa | 0 mm | - | 0 W/m² | - |
| 1778135943 | 8.89° C | 80% | 1018.7 hPa | 0 mm | - | 0 W/m² | - |
| 1778135640 | 8.33° C | 81% | 1019 hPa | 0 mm | - | 0 W/m² | - |
| 1778135337 | 7.78° C | 86% | 1019.2 hPa | 0 mm | - | 0 W/m² | - |
| 1778135033 | 8.33° C | 82% | 1019.3 hPa | 0 mm | - | 0 W/m² | - |
| 1778134731 | 8.33° C | 82% | 1019.2 hPa | 0 mm | - | 0 W/m² | - |
| 1778134429 | 8.33° C | 82% | 1019.3 hPa | 0 mm | - | 0 W/m² | - |
| 1778134127 | 8.89° C | 81% | 1019.2 hPa | 0 mm | - | 0 W/m² | - |
| 1778133823 | 8.89° C | 80% | 1019.3 hPa | 0 mm | - | 0 W/m² | - |
| 1778133520 | 8.89° C | 79% | 1019.6 hPa | 0 mm | - | 0 W/m² | - |
| 1778133215 | 9.44° C | 78% | 1019.7 hPa | 0 mm | - | 0 W/m² | - |
| 1778132912 | 9.44° C | 78% | 1019.3 hPa | 0 mm | - | 0 W/m² | - |
| 1778132608 | 9.44° C | 77% | 1019.5 hPa | 0 mm | - | 0 W/m² | - |
| 1778132306 | 9.44° C | 76% | 1019.3 hPa | 0 mm | - | 0 W/m² | - |
| 1778132003 | 10° C | 75% | 1019.4 hPa | 0 mm | - | 0 W/m² | - |
| 1778131702 | 10° C | 74% | 1019.5 hPa | 0 mm | - | 0 W/m² | - |
| 1778131398 | 10° C | 75% | 1019.4 hPa | 0 mm | - | 0 W/m² | - |
| 1778131096 | 10° C | 74% | 1019.5 hPa | 0 mm | - | 0 W/m² | - |
| 1778130794 | 10.56° C | 72% | 1019.4 hPa | 0 mm | - | 0 W/m² | - |
| 1778130490 | 10.56° C | 72% | 1019.3 hPa | 0 mm | - | 0 W/m² | - |
| 1778130186 | 10.56° C | 72% | 1019.2 hPa | 0 mm | - | 0 W/m² | - |
* Rain latest hour (hover to see other rain measurements)
** Current wind speed in m/s (hover to see current wind gust speed)